Terminal Aerodrome Forecast
Issued by NWS

Home | Current Version | Previous Version | Text Only | Print | Product List | Glossary On
Versions: 1 2 3 4 5 6 7 8 9 10 11 12 13 14 15 16
000
FTUS43 KDMX 240520
TAFOTM
TAF
KOTM 240520Z 2406/2506 13013G19KT P6SM VCSH OVC120
     FM241400 14016G22KT 6SM TSRA SCT020 OVC040CB
     FM241800 18012G18KT 5SM -SHRA SCT020 OVC035
     FM242300 29013KT P6SM BKN020 OVC040
     FM250300 34008KT P6SM SCT040 BKN250=

USA.gov is the U.S. government's official web portal to all federal, state and local government web resources and services.